Time;durP1;ratioP1;P1;durP2;ratioP2;P2;SDS_P1;SDS_P2;PMS_P1;PMS_P2;Temp;Humidity;BMP_temperature;BMP_pressure;BME280_temperature;BME280_humidity;BME280_pressure;Samples;Min_cycle;Max_cycle;Signal;HPM_P1;HPM_P2
2021/08/08 04:31:34;;;;;;;1.90;0.90;;;13.70;99.90;;;;;;5584843;23;20491;-82
2021/08/08 04:33:59;;;;;;;4.60;1.20;;;13.80;99.90;;;;;;4954935;29;20769;-82
2021/08/08 04:36:25;;;;;;;5.57;1.20;;;13.80;99.90;;;;;;4954378;29;20231;-82
2021/08/08 04:38:50;;;;;;;2.57;1.20;;;13.90;99.90;;;;;;4945645;29;20229;-81
2021/08/08 04:41:16;;;;;;;1.03;0.70;;;14.00;99.90;;;;;;4955878;28;20201;-81
2021/08/08 04:43:41;;;;;;;1.00;0.90;;;14.00;99.90;;;;;;4955840;29;20189;-82
2021/08/08 04:46:07;;;;;;;3.20;1.30;;;14.00;99.90;;;;;;4955954;29;20183;-79
2021/08/08 04:48:32;;;;;;;2.97;1.17;;;14.00;99.90;;;;;;4955398;29;20220;-82
2021/08/08 04:50:58;;;;;;;3.23;1.00;;;14.10;99.90;;;;;;4954472;28;20724;-82
2021/08/08 04:53:23;;;;;;;1.23;0.93;;;14.10;99.90;;;;;;4955487;29;20181;-80
2021/08/08 04:55:49;;;;;;;1.83;1.00;;;14.20;99.90;;;;;;4955692;29;20267;-82
2021/08/08 04:58:14;;;;;;;4.83;1.00;;;14.20;99.90;;;;;;4955079;28;20211;-82
2021/08/08 05:00:40;;;;;;;0.80;0.70;;;14.20;99.90;;;;;;4961826;28;20181;-82
2021/08/08 05:03:05;;;;;;;4.43;1.00;;;14.30;99.90;;;;;;4962166;29;20253;-83
2021/08/08 05:05:31;;;;;;;2.10;0.97;;;14.30;99.90;;;;;;4962492;29;20177;-82
2021/08/08 05:07:57;;;;;;;2.20;1.00;;;14.30;99.90;;;;;;4962992;29;20185;-82
2021/08/08 05:10:26;;;;;;;0.97;0.90;;;14.40;99.90;;;;;;4962622;29;20259;-82
2021/08/08 05:12:52;;;;;;;3.13;1.40;;;14.40;99.90;;;;;;4962735;29;20217;-82
2021/08/08 05:15:18;;;;;;;1.00;0.80;;;14.50;99.90;;;;;;4962369;29;20425;-82
2021/08/08 05:17:44;;;;;;;2.20;0.73;;;14.50;99.90;;;;;;4963117;29;20460;-82
2021/08/08 05:20:10;;;;;;;2.13;0.87;;;14.60;99.90;;;;;;4963332;29;20177;-78
2021/08/08 05:22:36;;;;;;;7.57;1.07;;;14.80;99.90;;;;;;4958702;28;20275;-80
2021/08/08 05:25:03;;;;;;;1.20;0.90;;;15.00;99.90;;;;;;4961385;29;20508;-81
2021/08/08 05:27:28;;;;;;;1.73;0.50;;;15.30;99.90;;;;;;4955115;29;20173;-79
2021/08/08 05:29:54;;;;;;;3.33;0.97;;;15.70;99.90;;;;;;4954906;29;20913;-81
2021/08/08 05:32:19;;;;;;;0.83;0.70;;;16.20;99.90;;;;;;4954892;28;20216;-81
2021/08/08 05:34:46;;;;;;;3.10;0.80;;;16.60;99.90;;;;;;4955133;29;20179;-81
2021/08/08 05:37:12;;;;;;;8.90;0.80;;;17.00;99.90;;;;;;4957913;29;20180;-80
2021/08/08 05:39:38;;;;;;;2.87;0.77;;;17.50;99.90;;;;;;4962102;29;20460;-81
2021/08/08 05:42:04;;;;;;;2.43;0.87;;;17.90;99.90;;;;;;4962149;28;20200;-81
2021/08/08 05:44:29;;;;;;;2.10;0.60;;;18.20;99.90;;;;;;4957095;29;20176;-81
2021/08/08 05:46:55;;;;;;;0.80;0.60;;;18.50;99.90;;;;;;4958452;29;20249;-81
2021/08/08 05:49:20;;;;;;;2.43;0.80;;;18.80;99.90;;;;;;4961384;29;20183;-82
2021/08/08 05:51:46;;;;;;;5.27;0.73;;;19.10;99.90;;;;;;4962545;28;20200;-81
2021/08/08 05:54:12;;;;;;;1.60;0.67;;;19.40;99.90;;;;;;4957548;29;20181;-79
2021/08/08 05:56:37;;;;;;;10.23;1.07;;;19.40;99.90;;;;;;4954484;29;20610;-81
2021/08/08 05:59:03;;;;;;;1.47;0.87;;;19.80;99.90;;;;;;4954176;29;20209;-75
2021/08/08 06:01:28;;;;;;;2.10;0.77;;;19.70;99.90;;;;;;4953489;28;20211;-75
2021/08/08 06:03:54;;;;;;;2.03;0.60;;;19.70;99.90;;;;;;4953325;29;20642;-75
2021/08/08 06:06:19;;;;;;;2.10;0.63;;;19.70;99.90;;;;;;4953491;29;20181;-76
2021/08/08 06:08:45;;;;;;;0.90;0.60;;;19.70;99.90;;;;;;4953118;28;20703;-75
2021/08/08 06:11:11;;;;;;;1.90;0.70;;;19.80;99.90;;;;;;4957250;28;20192;-75
2021/08/08 06:13:36;;;;;;;0.87;0.63;;;19.90;99.90;;;;;;4957109;29;20179;-75
2021/08/08 06:16:02;;;;;;;1.80;0.67;;;19.80;99.90;;;;;;4957440;29;20412;-76
2021/08/08 06:18:28;;;;;;;3.60;0.63;;;19.90;99.90;;;;;;4955677;29;20200;-75
2021/08/08 06:20:53;;;;;;;1.67;0.60;;;20.10;99.90;;;;;;4957256;28;20192;-75
2021/08/08 06:23:19;;;;;;;1.77;0.60;;;20.30;99.90;;;;;;4957258;29;20207;-75
2021/08/08 06:25:44;;;;;;;3.33;1.07;;;20.40;99.90;;;;;;4957035;29;20658;-75
2021/08/08 06:28:10;;;;;;;5.10;0.70;;;20.40;99.90;;;;;;4957047;29;20180;-75
2021/08/08 06:30:35;;;;;;;2.63;0.63;;;20.50;99.90;;;;;;4956732;28;20180;-75
2021/08/08 06:33:01;;;;;;;1.47;0.50;;;20.40;99.90;;;;;;4957176;29;20184;-75
2021/08/08 06:35:26;;;;;;;2.10;0.60;;;20.70;99.90;;;;;;4956650;29;20188;-75
2021/08/08 06:37:52;;;;;;;1.17;0.60;;;20.80;99.90;;;;;;4956660;29;20188;-75
2021/08/08 06:40:18;;;;;;;1.47;0.53;;;21.20;99.90;;;;;;4957020;29;20177;-76
2021/08/08 06:42:44;;;;;;;0.83;0.60;;;21.40;99.90;;;;;;4955440;28;20204;-75
2021/08/08 06:45:10;;;;;;;1.17;0.60;;;21.50;99.90;;;;;;4956875;29;20475;-75
2021/08/08 06:47:35;;;;;;;0.70;0.60;;;21.80;99.90;;;;;;4956651;29;20180;-76
2021/08/08 06:50:01;;;;;;;2.43;0.90;;;21.70;99.90;;;;;;4956733;29;20413;-75
2021/08/08 06:52:26;;;;;;;2.10;0.70;;;21.60;99.90;;;;;;4956716;28;20574;-75
2021/08/08 06:54:52;;;;;;;1.03;0.70;;;21.70;99.90;;;;;;4955445;29;20203;-76
2021/08/08 06:57:28;;;;;;;1.30;0.73;;;21.70;99.90;;;;;;4956608;29;20183;-75
2021/08/08 06:59:54;;;;;;;1.50;0.80;;;21.60;99.90;;;;;;4953809;29;21705;-76
2021/08/08 07:02:20;;;;;;;6.10;0.60;;;21.70;99.90;;;;;;4963674;28;20470;-75
2021/08/08 07:04:46;;;;;;;1.63;0.80;;;21.90;99.90;;;;;;4937438;29;20236;-74
2021/08/08 07:07:12;;;;;;;1.53;0.73;;;22.10;99.90;;;;;;4936985;29;20417;-74
2021/08/08 07:09:37;;;;;;;9.17;1.27;;;22.30;99.90;;;;;;4936881;29;20177;-75
2021/08/08 07:12:03;;;;;;;1.10;0.80;;;22.50;99.90;;;;;;4936945;29;20295;-75
2021/08/08 07:14:33;;;;;;;1.27;0.73;;;22.50;99.90;;;;;;4936758;29;20217;-75
2021/08/08 07:16:59;;;;;;;1.87;0.70;;;22.70;99.90;;;;;;4936972;29;20178;-75
2021/08/08 07:19:24;;;;;;;1.27;0.80;;;22.80;99.90;;;;;;4936689;29;20468;-75
2021/08/08 07:21:52;;;;;;;1.90;0.80;;;22.90;99.90;;;;;;4936214;29;20564;-65
2021/08/08 07:24:18;;;;;;;3.90;0.80;;;22.60;99.90;;;;;;4936732;29;20177;-66
2021/08/08 07:26:43;;;;;;;1.17;0.70;;;22.80;99.90;;;;;;4936568;29;20903;-66
2021/08/08 07:29:09;;;;;;;2.33;0.83;;;22.80;99.90;;;;;;4936267;29;20649;-65
2021/08/08 07:31:35;;;;;;;3.20;1.07;;;22.40;99.90;;;;;;4936190;29;20221;-65
2021/08/08 07:34:00;;;;;;;2.50;0.93;;;22.60;99.90;;;;;;4936707;29;20793;-66
2021/08/08 07:36:26;;;;;;;4.30;0.80;;;22.90;99.90;;;;;;4936511;29;20264;-65
2021/08/08 07:38:51;;;;;;;1.73;0.90;;;23.30;99.90;;;;;;4936061;29;20217;-66
2021/08/08 07:41:17;;;;;;;2.50;0.90;;;23.20;99.90;;;;;;4936429;29;20197;-68
2021/08/08 07:43:42;;;;;;;3.73;0.67;;;23.50;99.90;;;;;;4936245;29;20598;-66
2021/08/08 07:46:08;;;;;;;2.83;0.90;;;23.30;99.90;;;;;;4936300;29;20264;-65
2021/08/08 07:48:33;;;;;;;1.27;0.80;;;23.30;99.90;;;;;;4935920;29;20180;-66
2021/08/08 07:50:59;;;;;;;2.50;0.73;;;23.10;99.90;;;;;;4936203;29;20227;-65
2021/08/08 07:53:24;;;;;;;5.03;0.60;;;23.20;99.90;;;;;;4936297;29;20200;-66
2021/08/08 07:55:54;;;;;;;2.20;0.70;;;23.50;99.90;;;;;;4936029;29;20610;-66
2021/08/08 07:58:19;;;;;;;4.73;0.97;;;23.40;99.90;;;;;;4935831;29;20229;-65
2021/08/08 08:00:45;;;;;;;5.13;0.73;;;23.10;99.90;;;;;;4935758;29;20452;-65
2021/08/08 08:03:11;;;;;;;0.80;0.80;;;23.10;99.90;;;;;;4936024;29;20409;-65
2021/08/08 08:05:36;;;;;;;4.47;1.10;;;23.10;99.90;;;;;;4935889;29;20546;-66
2021/08/08 08:08:02;;;;;;;4.03;0.93;;;23.10;99.90;;;;;;4935831;29;20212;-65
2021/08/08 08:10:29;;;;;;;1.00;0.80;;;23.30;99.90;;;;;;4935770;29;20185;-66
2021/08/08 08:12:55;;;;;;;2.40;0.77;;;23.20;99.90;;;;;;4935805;29;20272;-67
2021/08/08 08:15:20;;;;;;;3.23;1.00;;;23.50;99.90;;;;;;4935683;29;20420;-66
2021/08/08 08:17:49;;;;;;;1.40;0.67;;;23.90;99.90;;;;;;4935361;29;20679;-66
2021/08/08 08:20:15;;;;;;;1.57;0.80;;;23.80;99.90;;;;;;4935804;29;20204;-67
2021/08/08 08:22:41;;;;;;;2.20;0.80;;;24.00;99.90;;;;;;4935547;29;20437;-66
2021/08/08 08:25:08;;;;;;;2.63;0.83;;;23.60;99.90;;;;;;4935636;29;20418;-66
2021/08/08 08:27:34;;;;;;;1.33;0.80;;;23.20;99.90;;;;;;4935474;29;20978;-66
2021/08/08 08:29:59;;;;;;;1.40;0.77;;;22.70;99.90;;;;;;4935266;29;20519;-65
2021/08/08 08:32:25;;;;;;;3.00;1.33;;;22.60;99.90;;;;;;4934522;29;20249;-66
2021/08/08 08:34:50;;;;;;;2.00;1.00;;;22.60;99.90;;;;;;4935328;29;20189;-66
2021/08/08 08:37:16;;;;;;;2.33;1.07;;;22.60;99.90;;;;;;4935571;29;20189;-66
2021/08/08 08:39:42;;;;;;;3.10;1.13;;;22.90;99.90;;;;;;4934790;29;20279;-66
2021/08/08 08:42:09;;;;;;;2.00;0.70;;;23.60;99.90;;;;;;4935307;29;20457;-66
2021/08/08 08:44:34;;;;;;;2.80;0.93;;;24.00;99.90;;;;;;4934965;29;20185;-65
2021/08/08 08:47:02;;;;;;;1.63;0.70;;;24.30;99.90;;;;;;4935322;29;20432;-65
2021/08/08 08:49:28;;;;;;;1.50;0.87;;;24.90;99.90;;;;;;4934896;29;20188;-66
2021/08/08 08:52:00;;;;;;;5.10;0.80;;;25.30;99.90;;;;;;4935682;29;20528;-65
2021/08/08 08:54:28;;;;;;;2.60;1.00;;;25.00;99.90;;;;;;4934970;29;20421;-66
2021/08/08 08:56:55;;;;;;;5.83;0.70;;;24.80;99.90;;;;;;4935044;29;20455;-64
2021/08/08 08:59:21;;;;;;;2.10;0.80;;;24.30;99.90;;;;;;4934672;29;20563;-75
2021/08/08 09:01:47;;;;;;;1.00;0.60;;;23.70;99.90;;;;;;4934712;29;20535;-73
2021/08/08 09:04:12;;;;;;;1.63;0.80;;;23.90;99.90;;;;;;4935039;29;20541;-76
2021/08/08 09:06:40;;;;;;;2.00;0.73;;;24.30;99.90;;;;;;4934899;29;20185;-75
2021/08/08 09:09:06;;;;;;;2.67;1.10;;;24.30;99.90;;;;;;4934927;29;20192;-79
2021/08/08 09:11:39;;;;;;;2.50;0.63;;;24.20;99.90;;;;;;4934866;29;20433;-65
2021/08/08 09:14:08;;;;;;;3.73;0.70;;;23.90;99.90;;;;;;4934713;29;20173;-64
2021/08/08 09:16:55;;;;;;;2.00;0.80;;;23.90;99.90;;;;;;4934536;29;20429;-64
2021/08/08 09:19:25;;;;;;;1.90;0.87;;;24.00;99.90;;;;;;4934369;29;20464;-65
2021/08/08 09:21:51;;;;;;;1.47;0.60;;;24.10;99.90;;;;;;4933152;29;20504;-65
2021/08/08 09:24:25;;;;;;;0.90;0.80;;;24.50;99.90;;;;;;4934549;29;20440;-65
2021/08/08 09:26:59;;;;;;;3.50;0.93;;;24.80;99.90;;;;;;4934372;29;20476;-65
2021/08/08 09:29:25;;;;;;;3.50;0.80;;;25.00;99.90;;;;;;4934086;29;20962;-64
2021/08/08 09:31:50;;;;;;;2.10;0.70;;;25.00;99.90;;;;;;4934163;29;20445;-64
2021/08/08 09:34:35;;;;;;;2.40;1.27;;;25.20;99.90;;;;;;4934658;29;20180;-65
2021/08/08 09:37:04;;;;;;;1.00;0.70;;;25.50;99.90;;;;;;4934672;29;20174;-65
2021/08/08 09:39:34;;;;;;;1.40;0.90;;;25.80;99.90;;;;;;4934068;29;20877;-65
2021/08/08 09:42:16;;;;;;;1.43;0.73;;;25.70;99.90;;;;;;4934603;29;20476;-65
2021/08/08 09:44:55;;;;;;;2.70;1.40;;;25.30;99.90;;;;;;4934159;29;20419;-64
2021/08/08 09:47:22;;;;;;;0.60;0.60;;;24.70;99.90;;;;;;4934424;29;20416;-65
2021/08/08 09:50:05;;;;;;;2.60;1.00;;;24.50;99.90;;;;;;4934124;29;20512;-64
2021/08/08 09:52:32;;;;;;;0.90;0.70;;;24.00;99.90;;;;;;4934186;29;20461;-64
2021/08/08 09:54:57;;;;;;;1.80;0.90;;;23.50;99.90;;;;;;4934347;29;20425;-65
2021/08/08 09:57:23;;;;;;;1.00;0.77;;;23.20;99.90;;;;;;4934336;29;20469;-64
2021/08/08 09:59:50;;;;;;;0.97;0.87;;;22.40;99.90;;;;;;4933887;29;20213;-64
2021/08/08 10:02:20;;;;;;;3.03;0.80;;;22.40;99.90;;;;;;4934277;29;20201;-66
2021/08/08 10:04:49;;;;;;;3.17;0.80;;;22.30;99.90;;;;;;4934058;29;20496;-63
2021/08/08 10:07:18;;;;;;;3.90;0.90;;;22.40;99.90;;;;;;4934431;29;20421;-64
2021/08/08 10:09:45;;;;;;;1.87;0.90;;;22.70;99.90;;;;;;4933731;29;20425;-63
2021/08/08 10:12:20;;;;;;;3.90;1.00;;;23.00;99.90;;;;;;4934172;29;20980;-64
2021/08/08 10:14:48;;;;;;;1.63;1.10;;;23.10;99.90;;;;;;4934036;29;20434;-64
2021/08/08 10:17:14;;;;;;;1.57;0.80;;;23.20;99.90;;;;;;4934355;29;20432;-65
2021/08/08 10:19:41;;;;;;;0.90;0.70;;;23.30;99.90;;;;;;4933722;29;20460;-64
2021/08/08 10:22:07;;;;;;;1.63;1.00;;;23.00;99.90;;;;;;4934127;29;20714;-64
2021/08/08 10:24:33;;;;;;;1.33;1.20;;;22.60;99.90;;;;;;4933859;29;21312;-63
2021/08/08 10:26:59;;;;;;;2.70;1.00;;;22.40;99.90;;;;;;4934224;29;20428;-63
2021/08/08 10:29:25;;;;;;;1.53;0.80;;;23.10;99.90;;;;;;4933718;29;20409;-64
2021/08/08 10:31:51;;;;;;;1.40;0.80;;;24.30;99.90;;;;;;4932873;29;20488;-64
2021/08/08 10:34:29;;;;;;;0.87;0.50;;;25.50;99.90;;;;;;4934012;29;20646;-64
2021/08/08 10:36:54;;;;;;;6.97;1.00;;;26.50;99.90;;;;;;4934169;29;20173;-65
2021/08/08 10:39:20;;;;;;;2.03;0.60;;;27.20;99.90;;;;;;4933625;29;20976;-65
2021/08/08 10:41:58;;;;;;;3.30;0.60;;;27.70;99.90;;;;;;4933895;29;20201;-65
2021/08/08 10:44:26;;;;;;;4.30;0.80;;;27.90;99.90;;;;;;4933849;29;20178;-65
2021/08/08 10:46:53;;;;;;;2.40;0.80;;;27.90;99.90;;;;;;4933982;29;20405;-65
2021/08/08 10:49:31;;;;;;;3.90;0.87;;;27.90;99.90;;;;;;4933741;29;20409;-64
2021/08/08 10:52:02;;;;;;;1.37;1.27;;;28.10;99.90;;;;;;4933824;29;20926;-65
2021/08/08 10:54:48;;;;;;;1.97;1.00;;;27.50;99.90;;;;;;4933759;29;20417;-66
2021/08/08 10:57:15;;;;;;;1.90;0.93;;;26.80;99.90;;;;;;4937451;29;20417;-65
2021/08/08 10:59:54;;;;;;;1.20;0.90;;;26.80;99.90;;;;;;4937009;29;20932;-65
2021/08/08 11:02:28;;;;;;;1.23;0.70;;;27.50;99.90;;;;;;4937317;29;20484;-66
2021/08/08 11:04:54;;;;;;;0.90;0.73;;;28.00;99.90;;;;;;4937318;29;20416;-65
2021/08/08 11:07:27;;;;;;;2.90;1.07;;;28.40;99.90;;;;;;4937338;29;20927;-64
2021/08/08 11:09:53;;;;;;;3.17;1.60;;;27.60;99.90;;;;;;4936959;29;20417;-65
2021/08/08 11:12:36;;;;;;;4.67;0.87;;;27.80;99.90;;;;;;4937119;29;20666;-64
2021/08/08 11:15:02;;;;;;;6.93;1.60;;;27.50;99.90;;;;;;4937261;29;20174;-65
2021/08/08 11:17:28;;;;;;;0.83;0.80;;;26.90;99.90;;;;;;4937047;29;20425;-64
2021/08/08 11:19:55;;;;;;;2.17;1.13;;;26.20;99.90;;;;;;4936773;29;20523;-64
2021/08/08 11:22:21;;;;;;;2.07;0.80;;;25.80;99.90;;;;;;4936839;29;20223;-65
2021/08/08 11:24:57;;;;;;;2.50;0.80;;;25.60;99.90;;;;;;4936899;29;20472;-64
2021/08/08 11:27:29;;;;;;;3.33;0.80;;;25.30;99.90;;;;;;4936948;29;20408;-63
2021/08/08 11:29:55;;;;;;;0.70;0.60;;;25.20;99.90;;;;;;4936697;29;21005;-64
2021/08/08 11:32:27;;;;;;;2.50;0.93;;;25.30;99.90;;;;;;4936569;29;20449;-65
2021/08/08 11:35:27;;;;;;;3.30;0.93;;;25.10;99.90;;;;;;4936782;29;20184;-64
2021/08/08 11:37:52;;;;;;;4.00;1.17;;;24.90;99.90;;;;;;4936456;29;20422;-64
2021/08/08 11:40:31;;;;;;;2.73;1.53;;;24.90;99.90;;;;;;4936737;29;20933;-65
2021/08/08 11:43:03;;;;;;;0.87;0.60;;;24.60;99.90;;;;;;4936692;29;20181;-64
2021/08/08 11:45:40;;;;;;;1.43;0.80;;;24.10;99.90;;;;;;4936623;29;20824;-64
2021/08/08 11:48:07;;;;;;;1.17;0.77;;;23.70;99.90;;;;;;4936486;29;20429;-64
2021/08/08 11:50:33;;;;;;;1.00;0.80;;;23.50;99.90;;;;;;4935291;29;20497;-63
2021/08/08 11:53:00;;;;;;;1.93;0.70;;;23.30;99.90;;;;;;4936406;29;20854;-65
2021/08/08 11:55:27;;;;;;;2.10;1.07;;;23.10;99.90;;;;;;4936321;29;20421;-64
2021/08/08 11:58:22;;;;;;;1.70;1.03;;;23.00;99.90;;;;;;4936051;29;20429;-63
2021/08/08 12:00:48;;;;;;;4.50;2.63;;;22.60;99.90;;;;;;4927580;29;20444;-64
2021/08/08 12:03:13;;;;;;;4.17;2.50;;;22.50;99.90;;;;;;4936586;29;21230;-62
2021/08/08 12:05:42;;;;;;;3.20;1.20;;;22.50;99.90;;;;;;4935608;29;20406;-63
2021/08/08 12:08:08;;;;;;;27.47;2.70;;;22.00;99.90;;;;;;4934786;29;20208;-63
2021/08/08 12:10:36;;;;;;;2.73;1.00;;;21.60;99.90;;;;;;4935944;29;20774;-63
2021/08/08 12:13:15;;;;;;;5.70;1.30;;;21.30;99.90;;;;;;4935958;29;20782;-64
2021/08/08 12:15:40;;;;;;;4.30;0.80;;;21.10;99.90;;;;;;4935914;29;20417;-63
2021/08/08 12:18:06;;;;;;;3.10;0.77;;;21.00;99.90;;;;;;4935764;29;20436;-63
2021/08/08 12:20:41;;;;;;;3.87;0.90;;;21.00;99.90;;;;;;4935554;29;20181;-62
2021/08/08 12:23:12;;;;;;;2.53;0.73;;;21.30;99.90;;;;;;4935897;29;20181;-63
2021/08/08 12:25:38;;;;;;;4.23;0.70;;;21.60;99.90;;;;;;4935629;29;20415;-64
2021/08/08 12:28:04;;;;;;;7.33;0.80;;;21.70;99.90;;;;;;4935511;29;20560;-64
2021/08/08 12:30:30;;;;;;;1.33;0.70;;;21.70;99.90;;;;;;4935324;29;20409;-63
2021/08/08 12:33:09;;;;;;;1.07;0.60;;;21.70;99.90;;;;;;4935630;29;20429;-63
2021/08/08 12:35:38;;;;;;;3.40;0.83;;;21.60;99.90;;;;;;4935435;29;20301;-63
2021/08/08 12:38:15;;;;;;;2.30;0.70;;;21.70;99.90;;;;;;4935367;29;20500;-63
2021/08/08 12:40:52;;;;;;;1.50;0.83;;;22.00;99.90;;;;;;4935233;29;20417;-65
2021/08/08 12:43:26;;;;;;;5.67;1.07;;;22.20;99.90;;;;;;4935534;29;20413;-65
2021/08/08 12:45:53;;;;;;;0.93;0.80;;;22.40;99.90;;;;;;4935320;29;20461;-65
2021/08/08 12:48:32;;;;;;;1.23;0.70;;;22.30;99.90;;;;;;4935213;29;20418;-66
2021/08/08 12:50:58;;;;;;;1.27;0.70;;;22.50;99.90;;;;;;4935190;29;20463;-64
2021/08/08 12:53:24;;;;;;;1.23;0.60;;;22.80;99.90;;;;;;4935261;29;20450;-69
2021/08/08 12:55:54;;;;;;;2.03;0.83;;;22.80;99.90;;;;;;4935235;29;20421;-67
2021/08/08 12:58:20;;;;;;;2.20;1.03;;;22.80;99.90;;;;;;4935424;29;20449;-67
2021/08/08 13:00:45;;;;;;;1.47;0.80;;;22.90;99.90;;;;;;4935150;29;20428;-68
2021/08/08 13:03:11;;;;;;;0.90;0.70;;;23.00;99.90;;;;;;4935328;29;20173;-69
2021/08/08 13:05:37;;;;;;;2.60;1.00;;;23.10;99.90;;;;;;4934914;29;20174;-68
2021/08/08 13:08:02;;;;;;;2.70;1.20;;;23.10;99.90;;;;;;4934494;29;20181;-67
2021/08/08 13:10:28;;;;;;;1.77;0.80;;;23.40;99.90;;;;;;4960661;28;20604;-67
2021/08/08 13:12:54;;;;;;;1.83;1.00;;;23.40;99.90;;;;;;4954041;28;20192;-67
2021/08/08 13:15:22;;;;;;;4.63;0.97;;;23.40;99.90;;;;;;4954165;28;20181;-68
2021/08/08 13:17:48;;;;;;;2.50;0.90;;;23.50;99.90;;;;;;4953469;28;20554;-68
2021/08/08 13:20:15;;;;;;;1.37;1.00;;;23.70;99.90;;;;;;4953865;28;20470;-69
2021/08/08 13:22:41;;;;;;;1.30;0.97;;;23.70;99.90;;;;;;4952315;28;20193;-68
2021/08/08 13:25:08;;;;;;;1.80;0.80;;;23.50;99.90;;;;;;4951162;28;20416;-68
2021/08/08 13:27:34;;;;;;;4.67;1.00;;;23.30;99.90;;;;;;4953474;29;20447;-66
2021/08/08 13:30:00;;;;;;;2.40;0.90;;;23.30;99.90;;;;;;4953478;29;20416;-67
2021/08/08 13:32:26;;;;;;;3.10;0.83;;;23.40;99.90;;;;;;4953258;28;20551;-66
2021/08/08 13:34:51;;;;;;;1.80;1.10;;;23.00;99.90;;;;;;4953528;29;20532;-67
2021/08/08 13:37:17;;;;;;;2.00;1.23;;;23.00;99.90;;;;;;4953564;29;20188;-66
2021/08/08 13:39:42;;;;;;;2.47;0.70;;;22.80;99.90;;;;;;4953080;29;20226;-74
2021/08/08 13:42:08;;;;;;;2.20;0.80;;;22.50;99.90;;;;;;4953495;28;20207;-73
2021/08/08 13:44:33;;;;;;;1.17;0.90;;;22.30;99.90;;;;;;4953689;29;20235;-73
2021/08/08 13:46:59;;;;;;;2.20;0.60;;;21.90;99.90;;;;;;4953855;29;20184;-73
2021/08/08 13:49:27;;;;;;;2.20;0.60;;;21.70;99.90;;;;;;4953527;29;20181;-74
2021/08/08 13:51:53;;;;;;;1.73;1.00;;;21.40;99.90;;;;;;4953372;28;20228;-73
2021/08/08 13:54:19;;;;;;;1.10;0.80;;;21.20;99.90;;;;;;4953512;29;20502;-73
2021/08/08 13:56:45;;;;;;;1.53;1.23;;;21.10;99.90;;;;;;4953423;29;20499;-74
2021/08/08 13:59:11;;;;;;;1.67;1.00;;;21.20;99.90;;;;;;4953217;29;20289;-73
2021/08/08 14:01:36;;;;;;;1.87;1.00;;;21.60;99.90;;;;;;4953162;28;20567;-73
2021/08/08 14:04:02;;;;;;;2.70;1.77;;;21.90;99.90;;;;;;4953371;29;20181;-74
2021/08/08 14:06:27;;;;;;;0.97;0.87;;;22.00;99.90;;;;;;4953409;29;20180;-74
2021/08/08 14:08:53;;;;;;;2.07;0.80;;;22.00;99.90;;;;;;4953223;29;20312;-74
2021/08/08 14:11:18;;;;;;;2.93;2.20;;;22.00;99.90;;;;;;4952132;28;20204;-73
2021/08/08 14:13:44;;;;;;;9.53;6.67;;;22.10;99.90;;;;;;4953248;29;20188;-72
2021/08/08 14:16:09;;;;;;;5.10;3.63;;;22.10;99.90;;;;;;4953366;29;20597;-74
2021/08/08 14:18:35;;;;;;;12.40;5.57;;;22.00;99.90;;;;;;4952989;29;20204;-73
2021/08/08 14:21:04;;;;;;;3.50;1.93;;;22.00;99.90;;;;;;4953437;28;20200;-74
2021/08/08 14:23:30;;;;;;;1.90;1.10;;;21.90;99.90;;;;;;4953173;28;20212;-74
2021/08/08 14:25:56;;;;;;;1.17;1.00;;;22.00;99.90;;;;;;4953115;29;20452;-74
2021/08/08 14:28:23;;;;;;;2.70;1.27;;;22.10;99.90;;;;;;4953291;29;20185;-74
2021/08/08 14:30:49;;;;;;;3.43;0.93;;;21.80;99.90;;;;;;4954686;28;20434;-74
2021/08/08 14:33:14;;;;;;;4.60;0.97;;;21.90;99.90;;;;;;4957283;29;20424;-74
2021/08/08 14:35:40;;;;;;;3.60;1.00;;;21.90;99.90;;;;;;4957202;29;20462;-74
2021/08/08 14:38:06;;;;;;;3.80;1.00;;;22.10;99.90;;;;;;4956869;29;20650;-74
2021/08/08 14:40:31;;;;;;;1.53;0.83;;;22.20;99.90;;;;;;4957132;28;20603;-74
2021/08/08 14:42:57;;;;;;;1.87;1.10;;;22.30;99.90;;;;;;4956989;29;20419;-74
2021/08/08 14:45:22;;;;;;;1.90;0.80;;;22.30;99.90;;;;;;4957100;29;20208;-73
2021/08/08 14:47:48;;;;;;;0.80;0.80;;;22.30;99.90;;;;;;4956694;29;20188;-73
2021/08/08 14:50:13;;;;;;;1.30;0.80;;;22.40;99.90;;;;;;4956796;29;20257;-74
2021/08/08 14:52:39;;;;;;;1.43;0.77;;;22.30;99.90;;;;;;4956772;28;20651;-74
2021/08/08 14:55:05;;;;;;;0.70;0.63;;;22.20;99.90;;;;;;4957093;29;20220;-74
2021/08/08 14:57:31;;;;;;;2.53;0.70;;;22.20;99.90;;;;;;4956571;29;20263;-74
2021/08/08 14:59:56;;;;;;;2.20;0.67;;;22.00;99.90;;;;;;4956238;29;20610;-74
2021/08/08 15:02:22;;;;;;;0.90;0.60;;;22.00;99.90;;;;;;4956319;28;20775;-73
2021/08/08 15:04:47;;;;;;;1.50;0.70;;;21.90;99.90;;;;;;4956081;29;20890;-74
2021/08/08 15:07:13;;;;;;;2.60;0.90;;;21.80;99.90;;;;;;4956813;29;20235;-73
2021/08/08 15:09:38;;;;;;;2.93;0.83;;;21.70;99.90;;;;;;4956132;29;20219;-73
2021/08/08 15:12:06;;;;;;;0.60;0.60;;;21.80;99.90;;;;;;4956470;28;20580;-74
2021/08/08 15:14:31;;;;;;;1.67;0.90;;;21.70;99.90;;;;;;4957814;29;20268;-80
2021/08/08 15:16:57;;;;;;;2.30;1.00;;;21.60;99.90;;;;;;4957101;29;20455;-81
2021/08/08 15:19:22;;;;;;;4.20;1.00;;;21.40;99.90;;;;;;4957476;29;20698;-80
2021/08/08 15:21:48;;;;;;;2.30;1.13;;;21.40;99.90;;;;;;4956961;28;20255;-81
2021/08/08 15:24:14;;;;;;;0.93;0.70;;;21.30;99.90;;;;;;4957867;29;20253;-80
2021/08/08 15:26:41;;;;;;;3.50;0.90;;;21.40;99.90;;;;;;4957209;29;20181;-80
2021/08/08 15:29:06;;;;;;;2.03;1.10;;;21.40;99.90;;;;;;4957696;29;20443;-80
2021/08/08 15:31:32;;;;;;;2.90;1.00;;;21.20;99.90;;;;;;4960750;28;20467;-80
2021/08/08 15:33:57;;;;;;;1.37;0.70;;;21.10;99.90;;;;;;4964944;29;20173;-81
2021/08/08 15:36:23;;;;;;;4.97;1.10;;;21.20;99.90;;;;;;4963185;29;20187;-80
2021/08/08 15:38:48;;;;;;;6.43;1.53;;;21.00;99.90;;;;;;4963154;29;20271;-79
2021/08/08 15:41:14;;;;;;;2.20;1.20;;;20.90;99.90;;;;;;4958862;28;20196;-81
2021/08/08 15:43:39;;;;;;;2.00;0.90;;;20.90;99.90;;;;;;4959319;29;20184;-80
2021/08/08 15:46:05;;;;;;;3.63;1.33;;;20.90;99.90;;;;;;4956477;29;20697;-75
2021/08/08 15:48:30;;;;;;;1.43;1.10;;;20.80;99.90;;;;;;4948248;28;20193;-76
2021/08/08 15:50:57;;;;;;;7.70;1.17;;;20.90;99.90;;;;;;4961948;28;20200;-76
2021/08/08 15:53:23;;;;;;;2.30;2.10;;;20.90;99.90;;;;;;4955527;28;20177;-74
2021/08/08 15:55:49;;;;;;;2.17;1.97;;;20.90;99.90;;;;;;4955269;28;20992;-75
2021/08/08 15:58:14;;;;;;;2.97;1.83;;;20.90;99.90;;;;;;4955424;28;20259;-76
2021/08/08 16:00:40;;;;;;;4.83;1.00;;;20.90;99.90;;;;;;4955142;28;20177;-75
2021/08/08 16:03:05;;;;;;;1.33;1.23;;;20.90;99.90;;;;;;4955547;28;20646;-75
2021/08/08 16:05:31;;;;;;;1.13;1.03;;;21.00;99.90;;;;;;4955391;28;20173;-75
2021/08/08 16:07:56;;;;;;;1.70;1.03;;;21.10;99.90;;;;;;4954599;28;20404;-75
2021/08/08 16:10:22;;;;;;;1.47;0.90;;;21.20;99.90;;;;;;4955262;28;20168;-75
2021/08/08 16:12:48;;;;;;;3.07;1.17;;;21.30;99.90;;;;;;4954943;28;20205;-76
2021/08/08 16:15:13;;;;;;;1.63;0.90;;;21.40;99.90;;;;;;4955334;28;20268;-75
2021/08/08 16:17:39;;;;;;;2.40;0.90;;;21.60;99.90;;;;;;4954998;28;20642;-76
2021/08/08 16:20:05;;;;;;;3.27;1.20;;;21.60;99.90;;;;;;4953651;29;20289;-76
2021/08/08 16:22:31;;;;;;;2.60;0.90;;;21.40;99.90;;;;;;4954802;28;20196;-76
2021/08/08 16:24:56;;;;;;;2.70;1.00;;;21.40;99.90;;;;;;4955137;28;20431;-76
2021/08/08 16:27:22;;;;;;;1.20;1.10;;;21.30;99.90;;;;;;4954980;28;20205;-75
2021/08/08 16:29:48;;;;;;;1.83;0.90;;;21.20;99.90;;;;;;4953209;29;20176;-75
2021/08/08 16:32:14;;;;;;;1.17;0.80;;;21.20;99.90;;;;;;4954263;28;20255;-74
2021/08/08 16:34:40;;;;;;;0.80;0.80;;;21.10;99.90;;;;;;4954697;28;20472;-75
2021/08/08 16:37:07;;;;;;;1.93;1.10;;;21.10;99.90;;;;;;4954682;28;20429;-74
2021/08/08 16:39:32;;;;;;;0.90;0.80;;;21.00;99.90;;;;;;4954314;28;20550;-74
2021/08/08 16:41:58;;;;;;;1.80;1.10;;;21.00;99.90;;;;;;4954437;28;21194;-75
2021/08/08 16:44:23;;;;;;;0.87;0.87;;;21.00;99.90;;;;;;4954722;28;20183;-75
2021/08/08 16:46:50;;;;;;;2.77;0.70;;;20.90;99.90;;;;;;4954196;28;20173;-75
2021/08/08 16:49:17;;;;;;;2.80;0.80;;;20.80;99.90;;;;;;4954194;28;20176;-74
2021/08/08 16:51:42;;;;;;;2.00;0.77;;;20.80;99.90;;;;;;4954476;28;20976;-75
2021/08/08 16:54:08;;;;;;;1.10;0.80;;;20.80;99.90;;;;;;4952346;28;20420;-75
2021/08/08 16:56:34;;;;;;;1.37;1.20;;;20.80;99.90;;;;;;4954101;28;20206;-77
2021/08/08 16:58:59;;;;;;;1.27;0.70;;;20.80;99.90;;;;;;4954280;28;20212;-75
2021/08/08 17:01:25;;;;;;;0.70;0.70;;;20.80;99.90;;;;;;4953008;28;20193;-75
2021/08/08 17:03:50;;;;;;;2.50;0.80;;;20.70;99.90;;;;;;4954166;28;20180;-75
2021/08/08 17:06:16;;;;;;;1.33;0.90;;;20.70;99.90;;;;;;4954428;28;20185;-75
2021/08/08 17:08:42;;;;;;;0.80;0.80;;;20.50;99.90;;;;;;4953979;28;20204;-75
2021/08/08 17:11:07;;;;;;;3.07;1.03;;;20.40;99.90;;;;;;4954179;28;20447;-75
2021/08/08 17:13:33;;;;;;;1.03;0.90;;;20.40;99.90;;;;;;4953870;28;20677;-74
2021/08/08 17:15:58;;;;;;;2.73;0.70;;;20.30;99.90;;;;;;4954371;28;20193;-75